sensor_id;sensor_type;location;lat;lon;timestamp;P1;durP1;ratioP1;P2;durP2;ratioP2
10761;SDS011;5433;50.862;4.320;2023-08-24T00:00:51;7.47;;;5.15;;
10761;SDS011;5433;50.862;4.320;2023-08-24T00:03:17;9.02;;;5.22;;
10761;SDS011;5433;50.862;4.320;2023-08-24T00:05:46;8.55;;;5.13;;
10761;SDS011;5433;50.862;4.320;2023-08-24T00:08:13;7.13;;;5.30;;
10761;SDS011;5433;50.862;4.320;2023-08-24T00:10:39;7.65;;;5.57;;
10761;SDS011;5433;50.862;4.320;2023-08-24T00:13:05;8.88;;;4.93;;
10761;SDS011;5433;50.862;4.320;2023-08-24T00:15:32;6.60;;;5.50;;
10761;SDS011;5433;50.862;4.320;2023-08-24T00:17:58;9.02;;;5.53;;
10761;SDS011;5433;50.862;4.320;2023-08-24T00:20:24;6.38;;;4.93;;
10761;SDS011;5433;50.862;4.320;2023-08-24T00:22:52;8.55;;;5.20;;
10761;SDS011;5433;50.862;4.320;2023-08-24T00:25:19;7.72;;;5.78;;
10761;SDS011;5433;50.862;4.320;2023-08-24T00:27:45;10.23;;;5.70;;
10761;SDS011;5433;50.862;4.320;2023-08-24T00:30:11;8.25;;;5.45;;
10761;SDS011;5433;50.862;4.320;2023-08-24T00:32:37;7.57;;;5.13;;
10761;SDS011;5433;50.862;4.320;2023-08-24T00:35:04;10.27;;;5.15;;
10761;SDS011;5433;50.862;4.320;2023-08-24T00:37:34;7.55;;;5.22;;
10761;SDS011;5433;50.862;4.320;2023-08-24T00:40:01;5.90;;;5.20;;
10761;SDS011;5433;50.862;4.320;2023-08-24T00:42:38;7.68;;;5.63;;
10761;SDS011;5433;50.862;4.320;2023-08-24T00:45:05;8.45;;;5.53;;
10761;SDS011;5433;50.862;4.320;2023-08-24T00:47:31;7.00;;;5.53;;
10761;SDS011;5433;50.862;4.320;2023-08-24T00:49:57;8.55;;;5.50;;
10761;SDS011;5433;50.862;4.320;2023-08-24T00:52:24;8.32;;;5.63;;
10761;SDS011;5433;50.862;4.320;2023-08-24T00:54:51;7.07;;;5.45;;
10761;SDS011;5433;50.862;4.320;2023-08-24T00:57:17;6.97;;;5.75;;
10761;SDS011;5433;50.862;4.320;2023-08-24T00:59:43;6.93;;;5.40;;
10761;SDS011;5433;50.862;4.320;2023-08-24T01:02:09;6.65;;;5.15;;
10761;SDS011;5433;50.862;4.320;2023-08-24T01:04:36;10.20;;;5.65;;
10761;SDS011;5433;50.862;4.320;2023-08-24T01:07:02;6.97;;;5.43;;
10761;SDS011;5433;50.862;4.320;2023-08-24T01:09:28;7.20;;;5.57;;
10761;SDS011;5433;50.862;4.320;2023-08-24T01:12:00;6.80;;;5.10;;
10761;SDS011;5433;50.862;4.320;2023-08-24T01:16:57;7.60;;;5.10;;
10761;SDS011;5433;50.862;4.320;2023-08-24T01:21:50;10.30;;;5.43;;
10761;SDS011;5433;50.862;4.320;2023-08-24T01:24:18;9.32;;;5.63;;
10761;SDS011;5433;50.862;4.320;2023-08-24T01:26:51;8.00;;;5.70;;
10761;SDS011;5433;50.862;4.320;2023-08-24T01:29:20;8.27;;;5.40;;
10761;SDS011;5433;50.862;4.320;2023-08-24T01:31:47;7.45;;;5.95;;
10761;SDS011;5433;50.862;4.320;2023-08-24T01:34:14;9.18;;;6.07;;
10761;SDS011;5433;50.862;4.320;2023-08-24T01:36:40;8.63;;;5.70;;
10761;SDS011;5433;50.862;4.320;2023-08-24T01:39:09;7.78;;;6.00;;
10761;SDS011;5433;50.862;4.320;2023-08-24T01:41:37;8.75;;;6.13;;
10761;SDS011;5433;50.862;4.320;2023-08-24T01:44:08;8.43;;;5.63;;
10761;SDS011;5433;50.862;4.320;2023-08-24T01:46:35;7.72;;;5.72;;
10761;SDS011;5433;50.862;4.320;2023-08-24T01:49:02;11.13;;;6.05;;
10761;SDS011;5433;50.862;4.320;2023-08-24T01:51:28;7.70;;;5.22;;
10761;SDS011;5433;50.862;4.320;2023-08-24T01:53:55;8.48;;;5.65;;
10761;SDS011;5433;50.862;4.320;2023-08-24T01:56:23;9.05;;;5.90;;
10761;SDS011;5433;50.862;4.320;2023-08-24T01:58:49;7.40;;;5.88;;
10761;SDS011;5433;50.862;4.320;2023-08-24T02:01:15;9.20;;;5.55;;
10761;SDS011;5433;50.862;4.320;2023-08-24T02:03:41;7.25;;;5.53;;
10761;SDS011;5433;50.862;4.320;2023-08-24T02:06:07;9.48;;;5.53;;
10761;SDS011;5433;50.862;4.320;2023-08-24T02:08:34;10.18;;;6.22;;
10761;SDS011;5433;50.862;4.320;2023-08-24T02:11:00;12.30;;;6.68;;
10761;SDS011;5433;50.862;4.320;2023-08-24T02:13:26;12.00;;;6.85;;
10761;SDS011;5433;50.862;4.320;2023-08-24T02:16:02;10.82;;;6.65;;
10761;SDS011;5433;50.862;4.320;2023-08-24T02:18:28;7.97;;;6.57;;
10761;SDS011;5433;50.862;4.320;2023-08-24T02:20:54;10.23;;;7.13;;
10761;SDS011;5433;50.862;4.320;2023-08-24T02:23:20;9.45;;;6.82;;
10761;SDS011;5433;50.862;4.320;2023-08-24T02:25:46;9.82;;;6.65;;
10761;SDS011;5433;50.862;4.320;2023-08-24T02:28:12;13.02;;;6.88;;
10761;SDS011;5433;50.862;4.320;2023-08-24T02:30:39;8.55;;;6.60;;
10761;SDS011;5433;50.862;4.320;2023-08-24T02:33:05;10.55;;;6.32;;
10761;SDS011;5433;50.862;4.320;2023-08-24T02:35:31;8.35;;;6.75;;
10761;SDS011;5433;50.862;4.320;2023-08-24T02:37:57;9.15;;;6.45;;
10761;SDS011;5433;50.862;4.320;2023-08-24T02:40:23;10.60;;;6.40;;
10761;SDS011;5433;50.862;4.320;2023-08-24T02:42:49;9.00;;;6.00;;
10761;SDS011;5433;50.862;4.320;2023-08-24T02:45:15;9.70;;;6.40;;
10761;SDS011;5433;50.862;4.320;2023-08-24T02:47:41;6.50;;;5.78;;
10761;SDS011;5433;50.862;4.320;2023-08-24T02:50:07;10.02;;;6.28;;
10761;SDS011;5433;50.862;4.320;2023-08-24T02:52:33;7.15;;;6.28;;
10761;SDS011;5433;50.862;4.320;2023-08-24T02:54:59;9.27;;;6.82;;
10761;SDS011;5433;50.862;4.320;2023-08-24T02:57:26;8.10;;;6.03;;
10761;SDS011;5433;50.862;4.320;2023-08-24T02:59:52;12.38;;;6.32;;
10761;SDS011;5433;50.862;4.320;2023-08-24T03:02:18;7.65;;;6.18;;
10761;SDS011;5433;50.862;4.320;2023-08-24T03:04:44;8.20;;;6.50;;
10761;SDS011;5433;50.862;4.320;2023-08-24T03:07:10;7.95;;;6.03;;
10761;SDS011;5433;50.862;4.320;2023-08-24T03:09:37;7.75;;;6.93;;
10761;SDS011;5433;50.862;4.320;2023-08-24T03:12:03;9.05;;;5.90;;
10761;SDS011;5433;50.862;4.320;2023-08-24T03:14:29;8.13;;;6.07;;
10761;SDS011;5433;50.862;4.320;2023-08-24T03:16:55;7.63;;;5.93;;
10761;SDS011;5433;50.862;4.320;2023-08-24T03:19:21;8.07;;;6.05;;
10761;SDS011;5433;50.862;4.320;2023-08-24T03:21:47;7.70;;;6.40;;
10761;SDS011;5433;50.862;4.320;2023-08-24T03:24:13;7.43;;;6.35;;
10761;SDS011;5433;50.862;4.320;2023-08-24T03:26:39;7.20;;;6.47;;
10761;SDS011;5433;50.862;4.320;2023-08-24T03:29:05;7.57;;;6.00;;
10761;SDS011;5433;50.862;4.320;2023-08-24T03:31:31;6.65;;;6.03;;
10761;SDS011;5433;50.862;4.320;2023-08-24T03:33:57;12.48;;;6.30;;
10761;SDS011;5433;50.862;4.320;2023-08-24T03:36:23;6.85;;;6.13;;
10761;SDS011;5433;50.862;4.320;2023-08-24T03:38:49;9.57;;;6.68;;
10761;SDS011;5433;50.862;4.320;2023-08-24T03:41:15;7.47;;;6.25;;
10761;SDS011;5433;50.862;4.320;2023-08-24T03:43:41;7.57;;;6.43;;
10761;SDS011;5433;50.862;4.320;2023-08-24T03:46:08;9.60;;;6.85;;
10761;SDS011;5433;50.862;4.320;2023-08-24T03:48:34;10.65;;;6.70;;
10761;SDS011;5433;50.862;4.320;2023-08-24T03:51:00;7.80;;;6.38;;
10761;SDS011;5433;50.862;4.320;2023-08-24T03:53:26;8.40;;;6.30;;
10761;SDS011;5433;50.862;4.320;2023-08-24T03:55:52;9.63;;;6.65;;
10761;SDS011;5433;50.862;4.320;2023-08-24T03:58:18;8.55;;;6.25;;
10761;SDS011;5433;50.862;4.320;2023-08-24T04:00:44;8.20;;;6.45;;
10761;SDS011;5433;50.862;4.320;2023-08-24T04:03:11;10.50;;;6.25;;
10761;SDS011;5433;50.862;4.320;2023-08-24T04:05:37;6.90;;;5.90;;
10761;SDS011;5433;50.862;4.320;2023-08-24T04:08:03;10.40;;;5.82;;
10761;SDS011;5433;50.862;4.320;2023-08-24T04:10:29;7.28;;;5.70;;
10761;SDS011;5433;50.862;4.320;2023-08-24T04:12:55;7.18;;;6.00;;
10761;SDS011;5433;50.862;4.320;2023-08-24T04:15:22;10.65;;;6.15;;
10761;SDS011;5433;50.862;4.320;2023-08-24T04:17:48;7.70;;;6.30;;
10761;SDS011;5433;50.862;4.320;2023-08-24T04:20:14;9.60;;;6.45;;
10761;SDS011;5433;50.862;4.320;2023-08-24T04:22:41;8.70;;;6.20;;
10761;SDS011;5433;50.862;4.320;2023-08-24T04:25:07;8.60;;;6.10;;
10761;SDS011;5433;50.862;4.320;2023-08-24T04:27:33;7.70;;;6.47;;
10761;SDS011;5433;50.862;4.320;2023-08-24T04:29:59;7.05;;;6.30;;
10761;SDS011;5433;50.862;4.320;2023-08-24T04:32:25;11.15;;;6.53;;
10761;SDS011;5433;50.862;4.320;2023-08-24T04:34:51;8.82;;;6.75;;
10761;SDS011;5433;50.862;4.320;2023-08-24T04:37:17;9.88;;;6.68;;
10761;SDS011;5433;50.862;4.320;2023-08-24T04:39:43;8.73;;;6.72;;
10761;SDS011;5433;50.862;4.320;2023-08-24T04:42:10;10.88;;;6.70;;
10761;SDS011;5433;50.862;4.320;2023-08-24T04:44:36;7.95;;;6.82;;
10761;SDS011;5433;50.862;4.320;2023-08-24T04:47:02;9.65;;;7.18;;
10761;SDS011;5433;50.862;4.320;2023-08-24T04:49:29;10.45;;;7.00;;
10761;SDS011;5433;50.862;4.320;2023-08-24T04:51:55;8.70;;;6.57;;
10761;SDS011;5433;50.862;4.320;2023-08-24T04:54:21;7.43;;;6.60;;
10761;SDS011;5433;50.862;4.320;2023-08-24T04:56:48;10.10;;;6.97;;
10761;SDS011;5433;50.862;4.320;2023-08-24T04:59:14;8.07;;;6.68;;
10761;SDS011;5433;50.862;4.320;2023-08-24T05:01:40;9.07;;;6.70;;
10761;SDS011;5433;50.862;4.320;2023-08-24T05:04:06;11.30;;;7.10;;
10761;SDS011;5433;50.862;4.320;2023-08-24T05:06:32;8.52;;;6.78;;
10761;SDS011;5433;50.862;4.320;2023-08-24T05:08:58;11.38;;;6.88;;
10761;SDS011;5433;50.862;4.320;2023-08-24T05:11:26;9.60;;;7.40;;
10761;SDS011;5433;50.862;4.320;2023-08-24T05:13:54;11.55;;;6.95;;
10761;SDS011;5433;50.862;4.320;2023-08-24T05:16:20;11.05;;;7.15;;
10761;SDS011;5433;50.862;4.320;2023-08-24T05:18:46;9.32;;;7.30;;
10761;SDS011;5433;50.862;4.320;2023-08-24T05:21:12;9.60;;;7.30;;
10761;SDS011;5433;50.862;4.320;2023-08-24T05:23:38;8.93;;;7.03;;
10761;SDS011;5433;50.862;4.320;2023-08-24T05:26:04;11.18;;;7.28;;
10761;SDS011;5433;50.862;4.320;2023-08-24T05:28:30;11.70;;;7.90;;
10761;SDS011;5433;50.862;4.320;2023-08-24T05:30:57;10.90;;;7.72;;
10761;SDS011;5433;50.862;4.320;2023-08-24T05:33:23;14.65;;;7.72;;
10761;SDS011;5433;50.862;4.320;2023-08-24T05:35:50;11.88;;;7.30;;
10761;SDS011;5433;50.862;4.320;2023-08-24T05:38:16;9.90;;;6.88;;
10761;SDS011;5433;50.862;4.320;2023-08-24T05:40:42;10.68;;;7.13;;
10761;SDS011;5433;50.862;4.320;2023-08-24T05:43:09;12.98;;;7.10;;
10761;SDS011;5433;50.862;4.320;2023-08-24T05:45:36;10.80;;;6.75;;
10761;SDS011;5433;50.862;4.320;2023-08-24T05:48:04;11.75;;;6.65;;
10761;SDS011;5433;50.862;4.320;2023-08-24T05:50:30;12.13;;;6.75;;
10761;SDS011;5433;50.862;4.320;2023-08-24T05:52:56;10.73;;;6.05;;
10761;SDS011;5433;50.862;4.320;2023-08-24T05:55:22;8.45;;;5.85;;
10761;SDS011;5433;50.862;4.320;2023-08-24T05:57:48;8.70;;;5.78;;
10761;SDS011;5433;50.862;4.320;2023-08-24T06:00:14;8.80;;;5.53;;
10761;SDS011;5433;50.862;4.320;2023-08-24T06:02:41;7.45;;;5.75;;
10761;SDS011;5433;50.862;4.320;2023-08-24T06:05:07;8.73;;;5.40;;
10761;SDS011;5433;50.862;4.320;2023-08-24T06:07:34;9.98;;;5.85;;
10761;SDS011;5433;50.862;4.320;2023-08-24T06:10:00;11.20;;;6.38;;
10761;SDS011;5433;50.862;4.320;2023-08-24T06:12:26;10.70;;;6.40;;
10761;SDS011;5433;50.862;4.320;2023-08-24T06:14:52;12.10;;;6.85;;
10761;SDS011;5433;50.862;4.320;2023-08-24T06:17:18;9.95;;;6.45;;
10761;SDS011;5433;50.862;4.320;2023-08-24T06:19:44;12.07;;;6.32;;
10761;SDS011;5433;50.862;4.320;2023-08-24T06:22:10;17.85;;;6.60;;
10761;SDS011;5433;50.862;4.320;2023-08-24T06:24:36;10.55;;;6.05;;
10761;SDS011;5433;50.862;4.320;2023-08-24T06:27:02;17.67;;;6.53;;
10761;SDS011;5433;50.862;4.320;2023-08-24T06:29:28;10.60;;;6.70;;
10761;SDS011;5433;50.862;4.320;2023-08-24T06:31:54;8.25;;;6.25;;
10761;SDS011;5433;50.862;4.320;2023-08-24T06:34:21;14.20;;;7.00;;
10761;SDS011;5433;50.862;4.320;2023-08-24T06:36:47;7.93;;;6.05;;
10761;SDS011;5433;50.862;4.320;2023-08-24T06:39:13;8.88;;;5.80;;
10761;SDS011;5433;50.862;4.320;2023-08-24T06:41:39;10.38;;;5.30;;
10761;SDS011;5433;50.862;4.320;2023-08-24T06:44:05;8.35;;;5.55;;
10761;SDS011;5433;50.862;4.320;2023-08-24T06:46:31;9.45;;;5.28;;
10761;SDS011;5433;50.862;4.320;2023-08-24T06:48:57;11.50;;;5.70;;
10761;SDS011;5433;50.862;4.320;2023-08-24T06:51:24;8.68;;;5.22;;
10761;SDS011;5433;50.862;4.320;2023-08-24T06:53:50;10.88;;;5.28;;
10761;SDS011;5433;50.862;4.320;2023-08-24T06:56:16;10.95;;;5.18;;
10761;SDS011;5433;50.862;4.320;2023-08-24T06:58:43;10.55;;;5.05;;
10761;SDS011;5433;50.862;4.320;2023-08-24T07:01:10;8.63;;;5.20;;
10761;SDS011;5433;50.862;4.320;2023-08-24T07:03:36;11.40;;;4.93;;
10761;SDS011;5433;50.862;4.320;2023-08-24T07:06:02;12.07;;;5.20;;
10761;SDS011;5433;50.862;4.320;2023-08-24T07:08:29;14.07;;;5.70;;
10761;SDS011;5433;50.862;4.320;2023-08-24T07:10:55;10.55;;;5.55;;
10761;SDS011;5433;50.862;4.320;2023-08-24T07:13:21;9.95;;;5.32;;
10761;SDS011;5433;50.862;4.320;2023-08-24T07:15:47;12.60;;;5.60;;
10761;SDS011;5433;50.862;4.320;2023-08-24T07:18:14;10.55;;;5.35;;
10761;SDS011;5433;50.862;4.320;2023-08-24T07:20:40;11.35;;;5.63;;
10761;SDS011;5433;50.862;4.320;2023-08-24T07:23:06;13.07;;;5.53;;
10761;SDS011;5433;50.862;4.320;2023-08-24T07:25:33;11.20;;;5.45;;
10761;SDS011;5433;50.862;4.320;2023-08-24T07:27:59;9.65;;;5.53;;
10761;SDS011;5433;50.862;4.320;2023-08-24T07:30:28;8.70;;;5.00;;
10761;SDS011;5433;50.862;4.320;2023-08-24T07:32:54;10.40;;;5.63;;
10761;SDS011;5433;50.862;4.320;2023-08-24T07:35:20;7.65;;;5.13;;
10761;SDS011;5433;50.862;4.320;2023-08-24T07:37:50;7.82;;;5.25;;
10761;SDS011;5433;50.862;4.320;2023-08-24T07:40:16;9.88;;;5.75;;
10761;SDS011;5433;50.862;4.320;2023-08-24T07:42:43;9.15;;;5.10;;
10761;SDS011;5433;50.862;4.320;2023-08-24T07:45:09;10.85;;;6.13;;
10761;SDS011;5433;50.862;4.320;2023-08-24T07:47:36;11.88;;;5.60;;
10761;SDS011;5433;50.862;4.320;2023-08-24T07:50:03;9.63;;;6.30;;
10761;SDS011;5433;50.862;4.320;2023-08-24T07:52:29;9.27;;;6.18;;
10761;SDS011;5433;50.862;4.320;2023-08-24T07:54:55;11.45;;;6.30;;
10761;SDS011;5433;50.862;4.320;2023-08-24T07:57:24;10.25;;;5.65;;
10761;SDS011;5433;50.862;4.320;2023-08-24T07:59:51;14.00;;;6.60;;
10761;SDS011;5433;50.862;4.320;2023-08-24T08:02:17;25.17;;;6.82;;
10761;SDS011;5433;50.862;4.320;2023-08-24T08:04:43;22.23;;;6.72;;
10761;SDS011;5433;50.862;4.320;2023-08-24T08:07:09;17.50;;;6.25;;
10761;SDS011;5433;50.862;4.320;2023-08-24T08:09:36;14.52;;;6.03;;
10761;SDS011;5433;50.862;4.320;2023-08-24T08:12:02;16.38;;;5.80;;
10761;SDS011;5433;50.862;4.320;2023-08-24T08:14:32;19.70;;;6.28;;
10761;SDS011;5433;50.862;4.320;2023-08-24T08:16:58;11.35;;;5.93;;
10761;SDS011;5433;50.862;4.320;2023-08-24T08:19:24;12.57;;;6.10;;
10761;SDS011;5433;50.862;4.320;2023-08-24T08:21:51;12.50;;;6.05;;
10761;SDS011;5433;50.862;4.320;2023-08-24T08:24:17;13.93;;;6.22;;
10761;SDS011;5433;50.862;4.320;2023-08-24T08:26:44;15.88;;;6.43;;
10761;SDS011;5433;50.862;4.320;2023-08-24T08:29:10;9.38;;;6.20;;
10761;SDS011;5433;50.862;4.320;2023-08-24T08:31:36;11.27;;;6.40;;
10761;SDS011;5433;50.862;4.320;2023-08-24T08:34:02;11.80;;;6.45;;
10761;SDS011;5433;50.862;4.320;2023-08-24T08:36:31;8.40;;;6.18;;
10761;SDS011;5433;50.862;4.320;2023-08-24T08:38:57;14.68;;;6.95;;
10761;SDS011;5433;50.862;4.320;2023-08-24T08:41:24;11.77;;;6.70;;
10761;SDS011;5433;50.862;4.320;2023-08-24T08:43:53;12.40;;;6.22;;
10761;SDS011;5433;50.862;4.320;2023-08-24T08:46:19;9.70;;;6.75;;
10761;SDS011;5433;50.862;4.320;2023-08-24T08:48:45;14.32;;;6.57;;
10761;SDS011;5433;50.862;4.320;2023-08-24T08:51:12;11.35;;;6.85;;
10761;SDS011;5433;50.862;4.320;2023-08-24T08:53:39;11.75;;;6.63;;
10761;SDS011;5433;50.862;4.320;2023-08-24T08:56:05;13.32;;;7.05;;
10761;SDS011;5433;50.862;4.320;2023-08-24T08:58:32;11.48;;;6.65;;
10761;SDS011;5433;50.862;4.320;2023-08-24T09:01:01;11.55;;;6.97;;
10761;SDS011;5433;50.862;4.320;2023-08-24T09:03:28;11.85;;;6.57;;
10761;SDS011;5433;50.862;4.320;2023-08-24T09:05:57;8.88;;;6.38;;
10761;SDS011;5433;50.862;4.320;2023-08-24T09:08:23;11.45;;;6.68;;
10761;SDS011;5433;50.862;4.320;2023-08-24T09:10:51;11.90;;;6.95;;
10761;SDS011;5433;50.862;4.320;2023-08-24T09:13:17;10.45;;;6.63;;
10761;SDS011;5433;50.862;4.320;2023-08-24T09:15:43;9.05;;;6.15;;
10761;SDS011;5433;50.862;4.320;2023-08-24T09:18:09;15.13;;;6.50;;
10761;SDS011;5433;50.862;4.320;2023-08-24T09:20:35;12.65;;;6.70;;
10761;SDS011;5433;50.862;4.320;2023-08-24T09:23:01;11.43;;;5.68;;
10761;SDS011;5433;50.862;4.320;2023-08-24T09:25:28;9.05;;;5.70;;
10761;SDS011;5433;50.862;4.320;2023-08-24T09:28:00;9.98;;;6.18;;
10761;SDS011;5433;50.862;4.320;2023-08-24T09:30:32;9.07;;;5.88;;
10761;SDS011;5433;50.862;4.320;2023-08-24T09:33:03;11.88;;;6.10;;
10761;SDS011;5433;50.862;4.320;2023-08-24T09:35:34;8.38;;;5.82;;
10761;SDS011;5433;50.862;4.320;2023-08-24T09:38:06;9.98;;;5.53;;
10761;SDS011;5433;50.862;4.320;2023-08-24T09:40:40;10.55;;;6.90;;
10761;SDS011;5433;50.862;4.320;2023-08-24T09:43:12;7.80;;;6.40;;
10761;SDS011;5433;50.862;4.320;2023-08-24T09:45:47;8.13;;;6.03;;
10761;SDS011;5433;50.862;4.320;2023-08-24T09:48:14;9.68;;;6.60;;
10761;SDS011;5433;50.862;4.320;2023-08-24T09:50:42;8.40;;;6.55;;
10761;SDS011;5433;50.862;4.320;2023-08-24T09:53:08;10.10;;;6.95;;
10761;SDS011;5433;50.862;4.320;2023-08-24T09:55:37;10.57;;;6.40;;
10761;SDS011;5433;50.862;4.320;2023-08-24T09:58:06;9.02;;;7.13;;
10761;SDS011;5433;50.862;4.320;2023-08-24T10:00:35;12.15;;;7.57;;
10761;SDS011;5433;50.862;4.320;2023-08-24T10:03:02;11.75;;;7.10;;
10761;SDS011;5433;50.862;4.320;2023-08-24T10:05:28;8.73;;;6.57;;
10761;SDS011;5433;50.862;4.320;2023-08-24T10:07:56;9.10;;;6.68;;
10761;SDS011;5433;50.862;4.320;2023-08-24T10:10:25;7.88;;;6.65;;
10761;SDS011;5433;50.862;4.320;2023-08-24T10:12:53;9.25;;;6.57;;
10761;SDS011;5433;50.862;4.320;2023-08-24T10:15:22;8.00;;;6.55;;
10761;SDS011;5433;50.862;4.320;2023-08-24T10:17:48;11.05;;;7.47;;
10761;SDS011;5433;50.862;4.320;2023-08-24T10:20:15;9.82;;;7.65;;
10761;SDS011;5433;50.862;4.320;2023-08-24T10:22:43;10.20;;;7.55;;
10761;SDS011;5433;50.862;4.320;2023-08-24T10:25:09;10.70;;;7.60;;
10761;SDS011;5433;50.862;4.320;2023-08-24T10:27:37;11.30;;;8.32;;
10761;SDS011;5433;50.862;4.320;2023-08-24T10:30:09;14.38;;;9.10;;
10761;SDS011;5433;50.862;4.320;2023-08-24T10:32:35;12.70;;;8.73;;
10761;SDS011;5433;50.862;4.320;2023-08-24T10:35:02;13.18;;;8.90;;
10761;SDS011;5433;50.862;4.320;2023-08-24T10:37:28;12.52;;;8.63;;
10761;SDS011;5433;50.862;4.320;2023-08-24T10:39:56;9.48;;;8.48;;
10761;SDS011;5433;50.862;4.320;2023-08-24T10:42:22;9.93;;;8.00;;
10761;SDS011;5433;50.862;4.320;2023-08-24T10:44:48;9.32;;;7.85;;
10761;SDS011;5433;50.862;4.320;2023-08-24T10:49:41;10.20;;;8.02;;
10761;SDS011;5433;50.862;4.320;2023-08-24T10:55:04;9.65;;;7.28;;
10761;SDS011;5433;50.862;4.320;2023-08-24T10:57:34;9.43;;;7.63;;
10761;SDS011;5433;50.862;4.320;2023-08-24T11:02:40;7.78;;;6.35;;
10761;SDS011;5433;50.862;4.320;2023-08-24T11:05:14;7.95;;;6.07;;
10761;SDS011;5433;50.862;4.320;2023-08-24T11:07:54;7.82;;;5.63;;
10761;SDS011;5433;50.862;4.320;2023-08-24T11:10:21;7.05;;;5.57;;
10761;SDS011;5433;50.862;4.320;2023-08-24T11:15:39;8.52;;;5.22;;
10761;SDS011;5433;50.862;4.320;2023-08-24T11:18:22;4.63;;;4.20;;
10761;SDS011;5433;50.862;4.320;2023-08-24T11:21:01;6.00;;;4.38;;
10761;SDS011;5433;50.862;4.320;2023-08-24T11:23:28;5.85;;;5.25;;
10761;SDS011;5433;50.862;4.320;2023-08-24T11:25:54;5.35;;;4.55;;
10761;SDS011;5433;50.862;4.320;2023-08-24T11:28:28;5.72;;;5.13;;
10761;SDS011;5433;50.862;4.320;2023-08-24T11:30:54;7.70;;;4.60;;
10761;SDS011;5433;50.862;4.320;2023-08-24T11:33:27;5.13;;;4.57;;
10761;SDS011;5433;50.862;4.320;2023-08-24T11:35:54;7.25;;;5.03;;
10761;SDS011;5433;50.862;4.320;2023-08-24T11:38:20;5.88;;;4.38;;
10761;SDS011;5433;50.862;4.320;2023-08-24T11:40:46;7.15;;;4.38;;
10761;SDS011;5433;50.862;4.320;2023-08-24T11:43:20;6.05;;;5.15;;
10761;SDS011;5433;50.862;4.320;2023-08-24T11:45:46;8.98;;;5.13;;
10761;SDS011;5433;50.862;4.320;2023-08-24T11:48:12;6.68;;;5.30;;
10761;SDS011;5433;50.862;4.320;2023-08-24T11:50:38;8.52;;;5.85;;
10761;SDS011;5433;50.862;4.320;2023-08-24T11:53:06;6.80;;;5.28;;
10761;SDS011;5433;50.862;4.320;2023-08-24T11:55:32;6.07;;;5.38;;
10761;SDS011;5433;50.862;4.320;2023-08-24T11:58:00;8.43;;;6.18;;
10761;SDS011;5433;50.862;4.320;2023-08-24T12:00:26;7.93;;;5.90;;
10761;SDS011;5433;50.862;4.320;2023-08-24T12:02:52;7.28;;;5.65;;
10761;SDS011;5433;50.862;4.320;2023-08-24T12:07:48;9.55;;;6.40;;
10761;SDS011;5433;50.862;4.320;2023-08-24T12:10:14;7.78;;;5.63;;
10761;SDS011;5433;50.862;4.320;2023-08-24T12:12:40;6.30;;;5.68;;
10761;SDS011;5433;50.862;4.320;2023-08-24T12:15:06;9.07;;;6.38;;
10761;SDS011;5433;50.862;4.320;2023-08-24T12:17:42;9.18;;;6.80;;
10761;SDS011;5433;50.862;4.320;2023-08-24T12:20:15;8.00;;;6.10;;
10761;SDS011;5433;50.862;4.320;2023-08-24T12:22:41;8.77;;;6.20;;
10761;SDS011;5433;50.862;4.320;2023-08-24T12:25:07;7.22;;;6.53;;
10761;SDS011;5433;50.862;4.320;2023-08-24T12:27:33;8.40;;;6.30;;
10761;SDS011;5433;50.862;4.320;2023-08-24T12:30:00;9.32;;;6.00;;
10761;SDS011;5433;50.862;4.320;2023-08-24T12:32:30;6.10;;;5.55;;
10761;SDS011;5433;50.862;4.320;2023-08-24T12:35:07;8.27;;;5.63;;
10761;SDS011;5433;50.862;4.320;2023-08-24T12:37:34;6.63;;;5.63;;
10761;SDS011;5433;50.862;4.320;2023-08-24T12:40:01;8.10;;;5.85;;
10761;SDS011;5433;50.862;4.320;2023-08-24T12:42:27;5.78;;;5.15;;
10761;SDS011;5433;50.862;4.320;2023-08-24T12:44:53;7.22;;;5.50;;
10761;SDS011;5433;50.862;4.320;2023-08-24T12:47:20;7.38;;;5.65;;
10761;SDS011;5433;50.862;4.320;2023-08-24T12:49:46;7.90;;;4.97;;
10761;SDS011;5433;50.862;4.320;2023-08-24T12:52:13;6.28;;;4.68;;
10761;SDS011;5433;50.862;4.320;2023-08-24T12:54:39;7.20;;;5.28;;
10761;SDS011;5433;50.862;4.320;2023-08-24T12:57:05;5.80;;;4.55;;
10761;SDS011;5433;50.862;4.320;2023-08-24T12:59:33;5.72;;;4.28;;
10761;SDS011;5433;50.862;4.320;2023-08-24T13:01:59;4.93;;;4.00;;
10761;SDS011;5433;50.862;4.320;2023-08-24T13:04:26;4.38;;;3.80;;
10761;SDS011;5433;50.862;4.320;2023-08-24T13:06:54;5.28;;;3.70;;
10761;SDS011;5433;50.862;4.320;2023-08-24T13:09:20;5.53;;;3.67;;
10761;SDS011;5433;50.862;4.320;2023-08-24T13:11:48;4.88;;;3.60;;
10761;SDS011;5433;50.862;4.320;2023-08-24T13:14:14;7.40;;;3.90;;
10761;SDS011;5433;50.862;4.320;2023-08-24T13:16:40;3.78;;;3.20;;
10761;SDS011;5433;50.862;4.320;2023-08-24T13:19:06;5.03;;;3.50;;
10761;SDS011;5433;50.862;4.320;2023-08-24T13:21:32;5.25;;;3.20;;
10761;SDS011;5433;50.862;4.320;2023-08-24T13:23:58;6.22;;;3.08;;
10761;SDS011;5433;50.862;4.320;2023-08-24T13:26:24;5.25;;;3.10;;
10761;SDS011;5433;50.862;4.320;2023-08-24T13:28:51;6.28;;;3.22;;
10761;SDS011;5433;50.862;4.320;2023-08-24T13:31:18;4.47;;;3.10;;
10761;SDS011;5433;50.862;4.320;2023-08-24T13:33:44;5.50;;;3.00;;
10761;SDS011;5433;50.862;4.320;2023-08-24T13:36:10;4.60;;;2.88;;
10761;SDS011;5433;50.862;4.320;2023-08-24T13:38:36;5.78;;;3.22;;
10761;SDS011;5433;50.862;4.320;2023-08-24T13:41:02;6.20;;;2.90;;
10761;SDS011;5433;50.862;4.320;2023-08-24T13:43:29;6.25;;;3.58;;
10761;SDS011;5433;50.862;4.320;2023-08-24T13:45:55;4.65;;;3.40;;
10761;SDS011;5433;50.862;4.320;2023-08-24T13:48:21;6.25;;;3.33;;
10761;SDS011;5433;50.862;4.320;2023-08-24T13:50:49;6.68;;;3.03;;
10761;SDS011;5433;50.862;4.320;2023-08-24T13:53:17;6.72;;;3.00;;
10761;SDS011;5433;50.862;4.320;2023-08-24T13:55:43;6.22;;;3.20;;
10761;SDS011;5433;50.862;4.320;2023-08-24T13:58:09;4.38;;;2.83;;
10761;SDS011;5433;50.862;4.320;2023-08-24T14:00:35;4.55;;;2.60;;
10761;SDS011;5433;50.862;4.320;2023-08-24T14:03:02;4.88;;;2.90;;
10761;SDS011;5433;50.862;4.320;2023-08-24T14:05:28;5.53;;;2.67;;
10761;SDS011;5433;50.862;4.320;2023-08-24T14:07:54;4.85;;;2.70;;
10761;SDS011;5433;50.862;4.320;2023-08-24T14:10:20;5.18;;;2.50;;
10761;SDS011;5433;50.862;4.320;2023-08-24T14:12:46;5.47;;;2.72;;
10761;SDS011;5433;50.862;4.320;2023-08-24T14:15:12;3.25;;;2.55;;
10761;SDS011;5433;50.862;4.320;2023-08-24T14:17:39;4.68;;;2.70;;
10761;SDS011;5433;50.862;4.320;2023-08-24T14:20:05;6.07;;;2.88;;
10761;SDS011;5433;50.862;4.320;2023-08-24T14:22:31;5.50;;;2.83;;
10761;SDS011;5433;50.862;4.320;2023-08-24T14:24:57;4.35;;;2.70;;
10761;SDS011;5433;50.862;4.320;2023-08-24T14:27:23;3.97;;;3.00;;
10761;SDS011;5433;50.862;4.320;2023-08-24T14:29:49;4.07;;;2.72;;
10761;SDS011;5433;50.862;4.320;2023-08-24T14:32:16;5.45;;;2.53;;
10761;SDS011;5433;50.862;4.320;2023-08-24T14:34:42;3.70;;;2.55;;
10761;SDS011;5433;50.862;4.320;2023-08-24T14:37:09;5.35;;;2.50;;
10761;SDS011;5433;50.862;4.320;2023-08-24T14:39:35;5.68;;;2.40;;
10761;SDS011;5433;50.862;4.320;2023-08-24T14:42:01;3.28;;;2.30;;
10761;SDS011;5433;50.862;4.320;2023-08-24T14:44:28;2.60;;;2.20;;
10761;SDS011;5433;50.862;4.320;2023-08-24T14:46:54;4.38;;;2.60;;
10761;SDS011;5433;50.862;4.320;2023-08-24T14:49:20;4.25;;;2.28;;
10761;SDS011;5433;50.862;4.320;2023-08-24T14:51:46;3.65;;;2.65;;
10761;SDS011;5433;50.862;4.320;2023-08-24T14:54:12;3.38;;;2.30;;
10761;SDS011;5433;50.862;4.320;2023-08-24T14:56:39;4.50;;;2.45;;
10761;SDS011;5433;50.862;4.320;2023-08-24T14:59:05;5.03;;;2.50;;
10761;SDS011;5433;50.862;4.320;2023-08-24T15:01:31;3.70;;;2.55;;
10761;SDS011;5433;50.862;4.320;2023-08-24T15:03:58;3.95;;;2.22;;
10761;SDS011;5433;50.862;4.320;2023-08-24T15:06:24;3.83;;;2.65;;
10761;SDS011;5433;50.862;4.320;2023-08-24T15:08:50;2.90;;;2.40;;
10761;SDS011;5433;50.862;4.320;2023-08-24T15:11:17;4.97;;;2.72;;
10761;SDS011;5433;50.862;4.320;2023-08-24T15:13:44;4.35;;;2.20;;